Datum max min   Außentemperatur Tagesdurchschnitt Außenfeuchte Tagesdurchschnitt Taupunkt Tagesdurchschnitt Windchill Tagesdurchschnitt Windgeschwindigkeit Tagesdurchschnitt   Mindesttemperatur Höchsttemperatur Höchste Windgeschwindigkeit  Tägliche Niederschlagsmenge 
  °C % °C °C km/h   °C °C km/h mm/m²
 
mittelwert
01.01.1979     1005,1 -17,6           -22,0 -15,7   0,7
02.01.1979     1015,0 -14,4           -18,0 -11,9   0,1
03.01.1979     1013,2 -10,8           -15,8 -9,6   1,3
04.01.1979     1008,9 -11,6           -14,2 -9,0   0,4
05.01.1979     1018,1 -13,8           -16,8 -11,6   0,0
06.01.1979     1024,9 -16,2           -18,6 -10,6   0,0
07.01.1979     1027,3 -7,3           -20,7 -5,1   0,0
08.01.1979     1019,5 -3,4           -5,9 -1,7   0,0
09.01.1979     1007,4 -0,2           -3,0 0,7   1,7
10.01.1979     998,2 -3,5           -4,5 0,3   0,4
11.01.1979     984,1 -2,3           -5,1 -0,9   4,5
12.01.1979     993,0 -2,5           -3,1 -1,2   7,0
13.01.1979     1009,2 -4,0           -5,0 -1,8   1,4
14.01.1979     1020,8 -4,0           -5,6 -2,4   3,0
15.01.1979     1024,2 -6,2           -7,2 -3,5   2,6
16.01.1979     1024,0 -6,9           -8,3 -6,2   7,3
17.01.1979     1019,0 -6,2           -6,8 -4,5   0,0
18.01.1979     1019,7 -9,4           -12,7 -5,4   0,0
19.01.1979     1018,8 -10,4           -16,0 -6,5   0,0
20.01.1979     1017,3 -10,6           -17,3 -8,6   0,0
21.01.1979     1019,9 -7,8           -8,6 -6,1   0,0
22.01.1979     1015,0 -5,3           -9,2 -4,2   0,0
23.01.1979     1006,3 -1,2           -4,5 0,6   4,4
24.01.1979     1001,4 -1,7           -3,3 1,9   0,8
25.01.1979     1002,7 -6,0           -7,4 -3,2   0,0
26.01.1979     996,3 -3,9           -11,3 -1,9   0,1
27.01.1979     997,5 -1,6           -3,4 -0,5   7,7
28.01.1979     994,0 -2,4           -2,9 -1,3   0,1
29.01.1979     1000,1 -2,0           -3,3 -1,0   0,0
30.01.1979     1000,3 -0,6           -6,6 0,5   1,2
31.01.1979     1008,3 -1,4           -2,8 0,2   1,1
01.02.1979     1005,1 -1,5           -2,5 -0,5   4,0
02.02.1979     993,4 0,5           -2,4 3,7   11,7
03.02.1979     1003,1 -3,6           -5,0 -1,3   0,0
04.02.1979     1002,3 -2,4           -5,1 1,4   1,3
05.02.1979     997,5 -2,8           -4,0 -0,2   0,6
06.02.1979     1011,8 -5,6           -8,3 -1,8   0,0
07.02.1979     1001,0 -5,3           -12,0 -3,7   2,2
08.02.1979     1003,3 -1,3           -12,4 -2,2   2,4
09.02.1979     1000,4 -5,0           -11,2 -2,2   0,0
10.02.1979     999,0 -6,6           -6,8 -1,6   0,0
11.02.1979     991,4 -3,2           -3,8 1,5   1,6
12.02.1979     990,7 -0,2           1,0 3,1   4,6
13.02.1979     988,5 2,0           0,5 5,0   0,7
14.02.1979     1001,7 2,6           -8,2 2,0   8,7
15.02.1979     1014,8 -5,0           -9,9 -6,2   2,2
16.02.1979     1011,6 -7,3           -9,7 -6,4   1,9
17.02.1979     1013,7 -8,6           -8,9 -1,8   1,5
18.02.1979     1020,6 -3,6           -4,0 0,2   0,3
19.02.1979     1026,7 -2,1           -5,6 1,4   0,0
20.02.1979     1023,5 -2,8           -8,1 0,8   0,0
21.02.1979     1020,1 -4,4           -10,2 2,0   0,0
22.02.1979     1021,5 -2,9           -3,3 1,0   0,1
23.02.1979     1026,9 -2,7           -4,0 0,4   0,8
24.02.1979     1027,1 -4,0           -6,0 -0,4   0,1
25.02.1979     1033,1 -4,4           -6,3 -2,3   0,2
26.02.1979     1029,3 -5,2           -10,4 1,0   0,0
27.02.1979     1021,1 -3,8           -7,1 2,0   0,0
28.02.1979     1008,5 -4,6           -11,1 0,6   0,4
01.03.1979     1011,8 -1,1           -7,2 2,1   0,0
02.03.1979     1022,5 2,0           -2,3 3,8   0,0
03.03.1979     1024,0 3,5           1,2 4,8   0,0
04.03.1979     1021,9 4,1           3,9 5,2   6,1
05.03.1979     1025,1 0,8           -0,7 3,9   0,0
06.03.1979     1017,0 2,3           0,5 6,1   0,0
07.03.1979     1011,9 2,8           1,3 6,0   1,1
08.03.1979     1018,1 0,6           -0,5 4,7   0,0
09.03.1979     1007,7 0,9           -2,7 3,7   13,0
10.03.1979     1008,1 -2,1           -4,0 2,1   0,1
11.03.1979     1003,7 -0,5           -5,6 1,2   15,9
12.03.1979     1004,8 4,0           1,2 6,8   1,3
13.03.1979     1006,9 3,2           1,5 6,0   4,2
14.03.1979     1004,0 1,9           0,9 5,0   3,5
15.03.1979     996,0 4,4           2,0 6,0   0,0
16.03.1979     991,9 2,1           0,2 5,5   2,9
17.03.1979     1000,3 2,0           -1,0 5,4   0,0
18.03.1979     999,9 3,6           -0,2 7,2   0,1
19.03.1979     1002,2 -0,1           -0,8 3,6   1,0
20.03.1979     998,2 3,0           -2,8 7,3   4,4
21.03.1979     1002,5 3,7           1,7 8,2   1,6
22.03.1979     1010,7 2,1           0,2 7,4   2,5
23.03.1979     1012,1 0,0           -1,7 4,2   0,1
24.03.1979     1017,7 0,0           -5,1 6,1   0,0
25.03.1979     1008,7 5,8           -2,4 9,7   3,1
26.03.1979     1001,0 6,4           4,8 10,8   5,2
27.03.1979     998,4 5,8           2,0 8,7   0,0
28.03.1979     991,4 5,2           2,6 11,6   1,9
29.03.1979     992,7 1,1           0,8 3,7   2,1
30.03.1979     995,2 0,0           -0,4 1,0   7,2
31.03.1979     1004,4 0,4           -0,5 1,2   4,8
01.04.1979     1006,7 0,9           -0,6 1,7   0,7
02.04.1979     1004,9 3,1           1,2 6,4   0,1
03.04.1979     999,3 2,0           0,5 4,9   2,5
04.04.1979     1001,9 1,1           -2,0 2,8   4,2
05.04.1979     1004,8 1,8           0,2 6,5   0,0
06.04.1979     1006,9 2,3           -1,4 5,0   3,6
07.04.1979     1009,3 0,2           -0,2 2,4   7,1
08.04.1979     1016,0 0,8           -0,9 3,2   0,0
09.04.1979     1014,1 1,2           0,0 3,3   0,0
10.04.1979     1010,4 6,2           -0,9 12,9   0,0
11.04.1979     1006,1 8,2           0,6 14,7   0,0
12.04.1979     1013,1 8,3           2,3 12,2   0,0
13.04.1979     1016,5 9,2           5,7 14,0   0,0
14.04.1979     1016,6 10,3           2,8 15,4   0,0
15.04.1979     1022,8 9,9           4,8 16,1   0,0
16.04.1979     1015,7 9,2           2,1 16,7   8,5
17.04.1979     1014,6 0,9           -0,8 7,3   1,0
18.04.1979     1023,3 -0,7           -2,6 0,9   0,1
19.04.1979     1023,7 1,9           -1,8 4,9   0,0
20.04.1979     1016,7 5,9           -1,1 9,5   0,8
21.04.1979     1011,7 4,6           3,6 8,4   0,4
22.04.1979     1008,5 5,7           2,8 10,6   3,6
23.04.1979     1000,4 7,0           4,0 10,2   5,4
24.04.1979     999,2 6,0           4,8 9,5   0,4
25.04.1979     1005,1 6,5           1,3 12,6   1,1
26.04.1979     1011,4 6,3           2,5 10,4   2,6
27.04.1979     1016,8 3,6           3,0 5,9   6,6
28.04.1979     1014,8 3,6           1,0 5,7   0,1
29.04.1979     1009,9 6,5           2,1 9,6   0,6
30.04.1979     1003,2 1,4           0,0 6,1   14,2
01.05.1979     1005,9 2,2           -0,1 5,7   5,2
02.05.1979     999,7 2,6           -0,2 6,6   1,2
03.05.1979     1009,7 1,7           -1,9 6,0   0,0
04.05.1979     1012,2 1,9           -2,0 5,1   4,7
05.05.1979     1017,8 1,1           0,3 4,2   3,0
06.05.1979     1019,4 1,2           -2,1 6,4   0,7
07.05.1979     1022,4 5,0           -2,8 10,2   0,0
08.05.1979     1022,0 8,0           -2,1 14,4   0,0
09.05.1979     1019,1 11,1           1,0 17,6   0,0
10.05.1979     1024,1 5,7           3,7 10,7   0,0
11.05.1979     1022,9 6,3           -1,6 11,0   6,6
12.05.1979     1024,6 7,8           6,5 11,3   3,1
13.05.1979     1030,4 9,0           6,2 13,4   0,0
14.05.1979     1028,6 13,8           7,2 20,6   0,0
15.05.1979     1020,6 16,0           5,6 23,0   0,0
16.05.1979     1012,5 16,9           7,1 23,5   0,0
17.05.1979     1011,0 16,6           11,0 22,4   0,0
18.05.1979     1014,2 16,0           10,8 21,7   1,6
19.05.1979     1018,2 12,8           10,0 17,6   0,0
20.05.1979     1012,4 19,7           10,4 26,5   0,0
21.05.1979     1017,2 10,3           8,5 21,7   0,0
22.05.1979     1017,1 15,0           4,7 20,9   0,0
23.05.1979     1013,1 18,7           10,1 25,1   0,0
24.05.1979     1007,0 14,0           8,9 24,5   0,6
25.05.1979     1013,2 9,5           7,2 14,4   0,1
26.05.1979     1013,3 16,3           6,4 23,0   0,0
27.05.1979     1010,5 15,2           11,8 22,5   20,9
28.05.1979     1019,0 12,5           8,5 17,2   0,0
29.05.1979     1020,6 18,5           7,2 25,1   0,0
30.05.1979     1018,1 19,2           12,4 25,6   0,0
31.05.1979     1017,8 21,1           12,1 26,8   0,0
01.06.1979     1021,8 19,6           13,7 27,5   3,5
02.06.1979     1023,1 21,6           15,1 28,1   0,0
03.06.1979     1022,9 22,6           15,0 28,0   0,0
04.06.1979     1019,4 21,6           15,3 27,6   0,0
05.06.1979     1016,2 19,6           13,9 27,3   6,1
06.06.1979     1017,5 17,5           14,0 22,6   10,9
07.06.1979     1018,1 12,4           11,3 16,4   6,0
08.06.1979     1018,2 11,2           9,8 16,0   0,0
09.06.1979     1017,4 14,8           4,4 20,1   0,0
10.06.1979     1019,2 15,6           7,6 22,3   0,0
11.06.1979     1020,5 17,8           10,9 23,2   0,0
12.06.1979     1018,2 18,1           11,5 25,5   0,1
13.06.1979     1012,5 16,6           13,4 21,5   0,0
14.06.1979     1009,8 12,8           10,5 17,8   0,8
15.06.1979     1006,2 10,1           8,9 13,9   7,2
16.06.1979     1013,0 10,2           8,2 14,4   4,1
17.06.1979     1019,3 10,8           8,1 14,6   0,0
18.06.1979     1022,4 10,7           7,3 13,8   0,0
19.06.1979     1021,8 15,3           9,5 17,6   0,0
20.06.1979     1019,1 15,8           10,7 21,3   0,0
21.06.1979     1015,9 18,0           9,4 23,3   0,0
22.06.1979     1013,7 15,1           8,8 24,1   23,3
23.06.1979     1014,4 15,8           12,9 19,5   0,1
24.06.1979     1011,9 19,2           10,7 25,4   4,6
25.06.1979     1017,4 15,8           11,9 20,6   0,0
26.06.1979     1018,2 17,0           10,0 22,7   0,0
27.06.1979     1018,1 19,8           11,6 24,5   8,0
28.06.1979     1019,8 13,3           12,7 18,6   2,0
29.06.1979     1016,2 16,6           8,4 21,6   0,0
30.06.1979     1016,9 11,7           10,5 16,2   0,0
01.07.1979     1018,4 9,0           7,1 13,0   0,0
02.07.1979     1020,0 10,1           6,0 13,2   0,0
03.07.1979     1021,4 11,8           4,2 15,1   0,0
04.07.1979     1022,7 12,3           9,7 17,5   0,0
05.07.1979     1026,3 13,4           8,7 18,9   0,0
06.07.1979     1022,4 14,5           5,9 19,4   0,0
07.07.1979     1017,1 14,5           11,6 18,8   7,0
08.07.1979     1013,6 11,2           10,3 15,1   1,3
09.07.1979     1014,2 12,6           9,7 13,8   6,8
10.07.1979     1020,5 10,9           8,2 14,0   0,0
11.07.1979     1021,4 12,8           4,3 18,4   0,0
12.07.1979     1019,0 15,4           8,1 19,4   0,1
13.07.1979     1017,1 16,3           12,6 18,4   13,4
14.07.1979     1021,5 14,4           12,7 19,1   3,8
15.07.1979     1022,2 13,5           8,4 21,1   0,3
16.07.1979     1018,9 11,1           8,0 14,4   3,8
17.07.1979     1017,0 12,8           9,3 16,5   0,9
18.07.1979     1013,6 16,6           12,2 21,3   0,0
19.07.1979     1010,5 14,6           13,1 19,3   0,2
20.07.1979     1013,6 12,6           10,5 15,8   0,0
21.07.1979     1013,4 12,4           9,2 17,0   0,0
22.07.1979     1017,0 11,6           9,0 15,2   0,9
23.07.1979     1020,6 11,7           7,0 15,9   0,0
24.07.1979     1018,6 11,2           9,1 15,2   0,2
25.07.1979     1017,8 14,8           10,3 19,3   3,0
26.07.1979     1019,4 14,9           10,0 19,8   2,2
27.07.1979     1022,0 14,6           10,0 19,5   10,1
28.07.1979     1019,7 16,4           11,7 21,6   0,0
29.07.1979     1013,3 19,1           12,6 25,2   12,8
30.07.1979     1011,7 15,4           12,0 21,2   0,0
31.07.1979     1009,7 17,0           11,3 21,4   1,9
01.08.1979     1010,5 17,2           14,2 20,0   5,8
02.08.1979     1011,5 17,6           14,4 21,6   0,1
03.08.1979     1015,8 16,6           12,7 22,2   0,0
04.08.1979     1019,2 13,3           10,1 18,0   8,1
05.08.1979     1020,1 13,7           6,3 18,8   0,0
06.08.1979     1015,7 16,6           9,1 23,7   0,0
07.08.1979     1012,8 18,0           10,6 24,0   0,0
08.08.1979     1011,2 17,8           12,5 23,4   0,0
09.08.1979     1009,0 14,0           8,6 19,5   17,5
10.08.1979     1008,7 10,3           9,4 13,4   2,2
11.08.1979     1015,8 11,1           8,4 15,2   0,0
12.08.1979     1019,2 12,1           5,8 17,5   0,0
13.08.1979     1018,4 14,5           9,1 19,9   0,0
14.08.1979     1013,6 16,9           7,6 23,9   0,0
15.08.1979     1013,5 18,6           12,1 27,7   0,0
16.08.1979     1012,4 18,2           10,1 27,0   0,0
17.08.1979     1013,8 13,7           12,1 17,6   3,4
18.08.1979     1009,8 15,3           12,1 19,2   0,1
19.08.1979     1010,2 15,2           10,3 22,5   0,0
20.08.1979     1015,4 15,1           8,8 20,5   0,1
21.08.1979     1016,2 14,7           9,4 19,6   0,0
22.08.1979     1015,0 14,2           12,4 19,5   0,7
23.08.1979     1012,3 14,2           9,3 20,6   17,8
24.08.1979     1011,2 11,5           10,0 16,0   0,3
25.08.1979     1010,5 9,3           8,1 12,4   3,4
26.08.1979     1008,1 8,3           5,8 13,7   0,2
27.08.1979     1013,4 9,9           6,6 15,0   0,1
28.08.1979     1021,6 9,0           6,4 11,4   0,0
29.08.1979     1026,1 12,1           7,4 17,8   0,0
30.08.1979     1024,9 13,3           6,4 19,5   0,0
31.08.1979     1022,6 15,0           7,6 23,6   0,0
01.09.1979     1021,4 16,1           7,5 25,2   0,0
02.09.1979     1018,9 17,3           8,3 25,5   4,9
03.09.1979     1017,0 14,5           13,5 18,2   21,7
04.09.1979     1021,3 10,7           8,7 13,6   3,2
05.09.1979     1022,5 10,8           7,4 16,2   0,0
06.09.1979     1018,2 13,2           5,6 20,2   0,0
07.09.1979     1018,7 15,4           8,2 23,0   0,0
08.09.1979     1020,3 14,8           9,4 20,9   0,0
09.09.1979     1019,1 15,6           11,1 23,0   2,1
10.09.1979     1021,3 12,2           9,4 17,4   0,0
11.09.1979     1020,9 13,4           4,4 20,4   0,0
12.09.1979     1020,2 13,8           10,9 20,0   0,0
13.09.1979     1016,4 15,8           9,8 14,9   0,8
14.09.1979     1020,2 11,2           5,4 11,2   0,0
15.09.1979     1023,8 6,4           1,0 12,7   0,6
16.09.1979     1017,0 6,7           3,2 17,4   0,0
17.09.1979     1015,0 10,6           8,5 19,7   0,0
18.09.1979     1018,9 15,2           13,4 21,0   0,0
19.09.1979     1013,9 15,2           9,1 21,4   0,0
20.09.1979     1012,5 14,8           7,6 13,4   3,4
21.09.1979     1012,8 8,4           4,5 7,9   17,5
22.09.1979     1016,3 4,9           4,8 6,0   19,2
23.09.1979     1016,0 5,5           5,4 6,5   4,6
24.09.1979     1020,7 5,8           4,7 10,6   3,9
25.09.1979     1023,8 6,6           3,1 14,0   0,1
26.09.1979     1024,3 7,0           2,1 16,9   0,0
27.09.1979     1027,4 10,1           8,4 11,7   0,1
28.09.1979     1024,9 8,9           6,0 12,0   0,1
29.09.1979     1025,8 8,0           6,3 12,9   0,0
30.09.1979     1022,2 7,2           1,5 14,7   0,0
01.10.1979     1021,0 7,4           2,7 14,5   0,0
02.10.1979     1023,7 5,6           1,8 11,6   0,0
03.10.1979     1019,6 6,0           0,4 12,0   0,0
04.10.1979     1012,0 10,4           4,3 16,5   0,0
05.10.1979     1010,1 10,2           6,0 13,8   2,7
06.10.1979     1016,2 7,8           6,4 12,2   0,0
07.10.1979     1018,5 7,0           2,9 9,8   0,0
08.10.1979     1021,0 11,0           7,5 17,0   0,0
09.10.1979     1018,1 7,8           4,4 14,1   0,0
10.10.1979     1013,0 7,8           4,6 15,7   0,0
11.10.1979     1007,4 7,9           4,5 13,9   0,0
12.10.1979     1005,6 11,0           5,9 19,1   0,0
13.10.1979     1000,3 10,9           7,2 15,9   0,0
14.10.1979     1002,3 11,5           6,5 18,3   0,0
15.10.1979     1000,3 11,1           9,1 17,0   0,0
16.10.1979     1009,8 10,4           8,0 16,6   6,3
17.10.1979     1018,1 8,2           7,1 9,9   6,2
18.10.1979     1021,3 6,4           5,0 8,9   2,4
19.10.1979     1026,1 5,4           2,8 10,6   0,0
20.10.1979     1024,7 6,7           2,0 14,6   0,0
21.10.1979     1023,4 6,3           1,5 10,0   0,0
22.10.1979     1024,7 2,2           0,0 6,7   0,0
23.10.1979     1024,4 1,3           -4,0 7,3   0,0
24.10.1979     1023,0 2,8           -1,8 9,2   0,0
25.10.1979     1019,8 1,4           -1,8 6,0   0,0
26.10.1979     1014,2 0,7           -2,5 5,3   0,0
27.10.1979     1011,0 1,4           -2,6 4,8   0,0
28.10.1979     1007,1 1,7           -1,3 5,8   0,7
29.10.1979     1005,9 2,2           -0,2 3,7   0,5
30.10.1979     1010,5 3,8           2,7 4,9   0,0
31.10.1979     1014,7 2,8           -0,9 7,7   8,5
01.11.1979     1014,8 5,0           2,3 6,7   2,6
02.11.1979     1020,3 3,8           1,3 6,8   10,8
03.11.1979     1027,0 1,0           -0,4 3,5   0,3
04.11.1979     1018,3 3,0           -1,0 4,3   5,6
05.11.1979     1001,2 4,2           1,9 6,2   4,4
06.11.1979     994,9 3,0           2,0 5,1   6,1
07.11.1979     1002,0 2,5           0,4 4,7   8,0
08.11.1979     1003,1 5,7           2,6 9,4   13,7
09.11.1979     1007,2 2,7           2,0 9,3   0,1
10.11.1979     1014,1 1,4           0,1 3,3   0,2
11.11.1979     1020,2 -0,8           -2,1 3,2   0,0
12.11.1979     1010,9 -0,7           -3,8 3,0   1,6
13.11.1979     1006,7 -1,3           -3,5 1,3   3,4
14.11.1979     1000,2 -0,1           -3,7 1,1   0,4
15.11.1979     993,4 0,0           -0,4 1,3   11,3
16.11.1979     1001,3 -1,0           -2,3 0,9   0,3
17.11.1979     1011,9 -0,6           -4,3 1,4   0,0
18.11.1979     1007,3 -0,3           -0,8 0,5   3,5
19.11.1979     1013,1 0,0           -1,2 0,8   0,8
20.11.1979     1018,1 0,6           0,1 0,8   2,2
21.11.1979     1024,2 0,0           -0,4 0,8   0,2
22.11.1979     1026,5 -1,4           -3,8 2,9   0,0
23.11.1979     1021,4 -1,7           -3,8 -0,7   0,0
24.11.1979     1017,7 -1,5           -2,3 -0,4   0,1
25.11.1979     1024,5 -0,8           -1,5 -0,5   0,0
26.11.1979     1018,2 1,9           -0,5 3,3   0,4
27.11.1979     1020,9 2,8           0,7 5,7   0,6
28.11.1979     1024,6 4,8           -0,3 6,1   0,0
29.11.1979     1023,7 4,9           3,0 10,6   0,0
30.11.1979     1017,2 2,6           0,6 3,7   0,1
01.12.1979     1016,2 6,5           3,7 7,2   5,2
02.12.1979     1024,1 5,7           4,7 7,0   0,0
03.12.1979     1025,2 7,4           4,0 10,0   0,0
04.12.1979     1027,1 5,4           2,9 9,5   0,0
05.12.1979     1019,7 8,3           3,7 9,9   1,7
06.12.1979     1020,6 7,2           6,4 9,2   4,0
07.12.1979     1016,8 9,4           7,9 10,2   0,1
08.12.1979     1011,2 6,5           6,4 9,5   0,1
09.12.1979     1005,0 5,5           4,9 6,4   7,4
10.12.1979     993,8 6,4           4,9 8,4   33,8
11.12.1979     986,4 5,6           3,6 9,3   20,2
12.12.1979     1011,0 -3,6           -4,9 3,6   0,4
13.12.1979     1012,6 -1,7           -7,0 -0,4   4,4
14.12.1979     1002,9 2,4           -0,5 4,7   2,5
15.12.1979     994,8 3,4           0,8 5,7   6,8
16.12.1979     1002,2 0,9           0,1 3,2   2,0
17.12.1979     1005,4 3,8           0,1 8,2   13,6
18.12.1979     1008,0 0,9           0,5 5,3   2,2
19.12.1979     1006,1 -0,6           -1,8 1,3   0,6
20.12.1979     1009,6 -2,8           -3,4 -0,8   4,9
21.12.1979     1015,3 -3,2           -4,8 -2,7   0,2
22.12.1979     1001,1 1,8           -3,2 3,2   0,0
23.12.1979     1004,7 0,1           -0,2 3,2   0,0
24.12.1979     1013,8 0,1           -1,2 1,4   0,0
25.12.1979     1020,7 -0,6           -1,3 0,8   0,0
26.12.1979     1026,7 -2,7           -5,0 1,5   0,0
27.12.1979     1020,7 -1,3           -6,0 0,7   0,0
28.12.1979     1005,9 -0,4           -3,0 1,8   1,0
29.12.1979     1001,6 -0,3           -1,0 1,3   7,0
30.12.1979     995,1 -1,6           -2,0 -0,7   5,9
31.12.1979     999,6 -1,2           -2,5 -0,7   2,1